Time;durP1;ratioP1;P1;durP2;ratioP2;P2;SDS_P1;SDS_P2;PMS_P1;PMS_P2;Temp;Humidity;BMP_temperature;BMP_pressure;BME280_temperature;BME280_humidity;BME280_pressure;Samples;Min_cycle;Max_cycle;Signal;HPM_P1;HPM_P2
2023/08/31 00:01:32;;;;;;;1.80;1.45;;;;;;;;;;4969040;28;20218;-57
2023/08/31 00:04:01;;;;;;;2.50;1.55;;;;;;;;;;4968916;28;20234;-57
2023/08/31 00:06:28;;;;;;;2.65;1.33;;;;;;;;;;4969049;28;20563;-57
2023/08/31 00:08:55;;;;;;;1.40;1.40;;;;;;;;;;4969108;28;20628;-58
2023/08/31 00:11:22;;;;;;;1.35;1.25;;;;;;;;;;4968997;28;20206;-57
2023/08/31 00:13:49;;;;;;;1.35;1.30;;;;;;;;;;4968701;28;20214;-57
2023/08/31 00:16:16;;;;;;;1.50;1.15;;;;;;;;;;4965149;28;20237;-57
2023/08/31 00:18:44;;;;;;;1.40;1.40;;;;;;;;;;4968850;28;20210;-58
2023/08/31 00:21:13;;;;;;;1.70;1.60;;;;;;;;;;4968625;28;20250;-57
2023/08/31 00:23:40;;;;;;;2.58;1.67;;;;;;;;;;4968916;28;20861;-57
2023/08/31 00:26:08;;;;;;;1.45;1.42;;;;;;;;;;4968561;28;20213;-57
2023/08/31 00:28:36;;;;;;;1.95;1.35;;;;;;;;;;4969179;28;20218;-57
2023/08/31 00:31:04;;;;;;;1.67;1.55;;;;;;;;;;4950073;28;20741;-58
2023/08/31 00:33:33;;;;;;;1.35;1.20;;;;;;;;;;4954831;28;20216;-57
2023/08/31 00:36:03;;;;;;;1.80;1.70;;;;;;;;;;4968618;28;20752;-58
2023/08/31 00:38:31;;;;;;;1.35;1.25;;;;;;;;;;4968985;28;20242;-58
2023/08/31 00:40:58;;;;;;;1.50;1.40;;;;;;;;;;4968697;28;20472;-57
2023/08/31 00:43:26;;;;;;;2.90;1.45;;;;;;;;;;4968214;28;20577;-57
2023/08/31 00:45:56;;;;;;;1.67;1.50;;;;;;;;;;4968652;28;20325;-57
2023/08/31 00:48:23;;;;;;;1.50;1.27;;;;;;;;;;4967987;28;20210;-58
2023/08/31 00:50:51;;;;;;;1.67;1.58;;;;;;;;;;4968073;28;20586;-57
2023/08/31 00:53:18;;;;;;;1.55;1.52;;;;;;;;;;4968421;28;20608;-57
2023/08/31 00:55:47;;;;;;;2.30;1.70;;;;;;;;;;4974465;28;20210;-58
2023/08/31 00:58:14;;;;;;;2.08;1.67;;;;;;;;;;4965100;28;20221;-58
2023/08/31 01:00:45;;;;;;;4.25;1.92;;;;;;;;;;4976148;28;20220;-58
2023/08/31 01:03:14;;;;;;;3.45;1.55;;;;;;;;;;4982395;28;20217;-58
2023/08/31 01:05:47;;;;;;;2.03;1.92;;;;;;;;;;4966891;28;20877;-57
2023/08/31 01:08:19;;;;;;;2.47;2.10;;;;;;;;;;4964430;28;20210;-57
2023/08/31 01:10:53;;;;;;;1.58;1.48;;;;;;;;;;4968671;28;20214;-57
2023/08/31 01:13:22;;;;;;;4.70;2.33;;;;;;;;;;4968072;28;20229;-57
2023/08/31 01:15:52;;;;;;;1.55;1.45;;;;;;;;;;4968073;28;20213;-57
2023/08/31 01:18:21;;;;;;;1.95;1.88;;;;;;;;;;4968492;28;20207;-57
2023/08/31 01:20:54;;;;;;;2.10;2.00;;;;;;;;;;4967887;28;20213;-57
2023/08/31 01:23:22;;;;;;;1.88;1.88;;;;;;;;;;4967266;28;20661;-57
2023/08/31 01:25:50;;;;;;;2.10;2.00;;;;;;;;;;4970486;28;20223;-57
2023/08/31 01:28:17;;;;;;;3.17;2.08;;;;;;;;;;4972083;28;20206;-57
2023/08/31 01:30:45;;;;;;;2.38;2.10;;;;;;;;;;4971987;28;20210;-64
2023/08/31 01:33:12;;;;;;;2.20;2.10;;;;;;;;;;4971637;28;20221;-64
2023/08/31 01:35:42;;;;;;;2.13;2.08;;;;;;;;;;4971597;28;20208;-64
2023/08/31 01:38:10;;;;;;;2.00;1.90;;;;;;;;;;4971017;28;20230;-63
2023/08/31 01:40:38;;;;;;;2.28;2.08;;;;;;;;;;4973168;28;20221;-64
2023/08/31 01:43:07;;;;;;;4.05;2.17;;;;;;;;;;4978811;28;20210;-64
2023/08/31 01:45:35;;;;;;;2.50;2.30;;;;;;;;;;4972016;28;20215;-64
2023/08/31 01:48:02;;;;;;;3.03;1.80;;;;;;;;;;4972153;28;20207;-64
2023/08/31 01:50:29;;;;;;;2.42;2.15;;;;;;;;;;4971156;28;20698;-64
2023/08/31 01:52:56;;;;;;;1.90;1.90;;;;;;;;;;4970879;28;20210;-64
2023/08/31 01:55:23;;;;;;;2.10;2.00;;;;;;;;;;4971467;28;20247;-64
2023/08/31 01:57:50;;;;;;;1.73;1.73;;;;;;;;;;4971326;28;20230;-64
2023/08/31 02:00:19;;;;;;;1.80;1.80;;;;;;;;;;4971046;28;20202;-65
2023/08/31 02:02:46;;;;;;;3.35;2.10;;;;;;;;;;4971258;28;20218;-64
2023/08/31 02:05:13;;;;;;;1.80;1.70;;;;;;;;;;4971001;28;20229;-63
2023/08/31 02:07:41;;;;;;;2.30;2.10;;;;;;;;;;4970877;28;20214;-64
2023/08/31 02:10:08;;;;;;;2.20;1.95;;;;;;;;;;4970851;28;20339;-64
2023/08/31 02:12:36;;;;;;;1.58;1.48;;;;;;;;;;4970326;28;20245;-64
2023/08/31 02:15:03;;;;;;;2.22;1.80;;;;;;;;;;4971315;28;20214;-64
2023/08/31 02:17:31;;;;;;;3.30;2.35;;;;;;;;;;4984392;28;20242;-64
2023/08/31 02:19:59;;;;;;;5.93;2.13;;;;;;;;;;4990399;28;20213;-64
2023/08/31 02:22:26;;;;;;;2.35;2.30;;;;;;;;;;4958418;28;20824;-64
2023/08/31 02:24:53;;;;;;;2.88;2.20;;;;;;;;;;4953076;28;20687;-63
2023/08/31 02:27:20;;;;;;;2.03;1.92;;;;;;;;;;4971031;28;20269;-64
2023/08/31 02:29:47;;;;;;;2.17;2.08;;;;;;;;;;4970871;28;20230;-64
2023/08/31 02:32:14;;;;;;;1.88;1.88;;;;;;;;;;4980944;28;20213;-64
2023/08/31 02:34:42;;;;;;;2.20;2.10;;;;;;;;;;4990398;28;20209;-64
2023/08/31 02:37:10;;;;;;;4.68;2.45;;;;;;;;;;4986403;28;20230;-64
2023/08/31 02:39:37;;;;;;;2.58;2.25;;;;;;;;;;4970907;28;20217;-65
2023/08/31 02:42:05;;;;;;;2.70;2.50;;;;;;;;;;4970728;28;20218;-63
2023/08/31 02:44:32;;;;;;;3.22;2.35;;;;;;;;;;4962647;28;20251;-64
2023/08/31 02:46:59;;;;;;;2.65;2.33;;;;;;;;;;4955599;28;20213;-64
2023/08/31 02:49:26;;;;;;;2.88;2.08;;;;;;;;;;4959793;28;20207;-64
2023/08/31 02:51:55;;;;;;;2.47;2.17;;;;;;;;;;4961995;28;20207;-64
2023/08/31 02:54:22;;;;;;;1.95;1.85;;;;;;;;;;4963784;28;20211;-64
2023/08/31 02:56:50;;;;;;;4.05;2.20;;;;;;;;;;4959896;28;20587;-64
2023/08/31 02:59:17;;;;;;;2.35;2.22;;;;;;;;;;4962762;28;20202;-64
2023/08/31 03:01:46;;;;;;;2.63;2.22;;;;;;;;;;4961956;28;20215;-64
2023/08/31 03:04:13;;;;;;;2.28;2.17;;;;;;;;;;4963633;28;20665;-64
2023/08/31 03:06:40;;;;;;;5.32;2.00;;;;;;;;;;4960586;28;20206;-64
2023/08/31 03:09:09;;;;;;;4.35;2.45;;;;;;;;;;4961642;28;20689;-64
2023/08/31 03:11:36;;;;;;;5.07;2.05;;;;;;;;;;4961555;28;20226;-64
2023/08/31 03:14:03;;;;;;;2.60;1.73;;;;;;;;;;4960257;28;20592;-65
2023/08/31 03:16:30;;;;;;;2.17;2.08;;;;;;;;;;4960878;28;20218;-64
2023/08/31 03:18:57;;;;;;;2.40;2.30;;;;;;;;;;4961685;28;20194;-64
2023/08/31 03:21:24;;;;;;;2.00;1.85;;;;;;;;;;4960143;28;20261;-64
2023/08/31 03:23:51;;;;;;;2.38;2.13;;;;;;;;;;4961145;28;20210;-64
2023/08/31 03:26:20;;;;;;;2.25;1.67;;;;;;;;;;4962196;28;20211;-64
2023/08/31 03:28:47;;;;;;;3.03;2.10;;;;;;;;;;4961411;28;20199;-65
2023/08/31 03:31:14;;;;;;;2.38;2.28;;;;;;;;;;4959705;28;20233;-65
2023/08/31 03:33:41;;;;;;;5.10;2.08;;;;;;;;;;4959052;28;20917;-65
2023/08/31 03:36:08;;;;;;;1.83;1.73;;;;;;;;;;4961649;28;20213;-64
2023/08/31 03:38:37;;;;;;;3.30;2.38;;;;;;;;;;4965076;28;20232;-64
2023/08/31 03:41:04;;;;;;;2.50;2.30;;;;;;;;;;4959465;28;20207;-65
2023/08/31 03:43:33;;;;;;;2.13;2.03;;;;;;;;;;4960358;28;20221;-64
2023/08/31 03:46:00;;;;;;;2.05;2.00;;;;;;;;;;4960604;28;20628;-65
2023/08/31 03:48:28;;;;;;;2.15;2.08;;;;;;;;;;4958005;28;20207;-65
2023/08/31 03:50:55;;;;;;;2.15;2.05;;;;;;;;;;4962033;28;20215;-64
2023/08/31 03:53:23;;;;;;;3.67;2.67;;;;;;;;;;4956522;28;20206;-67
2023/08/31 03:55:50;;;;;;;2.40;2.28;;;;;;;;;;4963720;28;20220;-64
2023/08/31 03:58:17;;;;;;;2.35;2.22;;;;;;;;;;4966404;28;20317;-64
2023/08/31 04:00:45;;;;;;;2.40;2.22;;;;;;;;;;4957347;28;20987;-64
2023/08/31 04:03:12;;;;;;;3.25;1.80;;;;;;;;;;4969652;28;20202;-65
2023/08/31 04:05:40;;;;;;;2.05;1.95;;;;;;;;;;4969908;28;20219;-64
2023/08/31 04:08:07;;;;;;;4.32;2.17;;;;;;;;;;4970139;28;20222;-64
2023/08/31 04:10:34;;;;;;;3.28;2.03;;;;;;;;;;4969645;28;20210;-65
2023/08/31 04:13:01;;;;;;;4.65;1.80;;;;;;;;;;4969698;28;20226;-64
2023/08/31 04:15:28;;;;;;;2.17;2.00;;;;;;;;;;4968581;28;20217;-64
2023/08/31 04:17:56;;;;;;;2.08;1.98;;;;;;;;;;4950871;28;20234;-65
2023/08/31 04:20:23;;;;;;;2.85;2.17;;;;;;;;;;4950355;29;20218;-64
2023/08/31 04:22:50;;;;;;;4.30;1.92;;;;;;;;;;4950546;29;20720;-64
2023/08/31 04:25:17;;;;;;;2.75;2.45;;;;;;;;;;4950287;29;20214;-65
2023/08/31 04:27:45;;;;;;;1.98;1.90;;;;;;;;;;4981266;28;20588;-64
2023/08/31 04:30:13;;;;;;;3.17;2.28;;;;;;;;;;4969299;28;20202;-64
2023/08/31 04:32:40;;;;;;;4.63;2.05;;;;;;;;;;4969598;28;20214;-64
2023/08/31 04:35:09;;;;;;;2.03;1.92;;;;;;;;;;4969690;28;20218;-64
2023/08/31 04:37:36;;;;;;;3.40;2.03;;;;;;;;;;4968461;28;20253;-64
2023/08/31 04:40:03;;;;;;;2.05;1.88;;;;;;;;;;4950072;29;20207;-64
2023/08/31 04:42:31;;;;;;;2.33;2.13;;;;;;;;;;4979398;28;20224;-59
2023/08/31 04:44:58;;;;;;;2.38;2.28;;;;;;;;;;4988581;28;20830;-59
2023/08/31 04:47:25;;;;;;;2.20;2.17;;;;;;;;;;4970586;28;20214;-59
2023/08/31 04:49:52;;;;;;;2.78;2.42;;;;;;;;;;4969447;28;20214;-59
2023/08/31 04:52:20;;;;;;;2.60;2.40;;;;;;;;;;4969861;28;20214;-59
2023/08/31 04:54:47;;;;;;;1.98;1.88;;;;;;;;;;4968369;28;20357;-59
2023/08/31 04:57:14;;;;;;;2.03;1.92;;;;;;;;;;4954498;28;20238;-59
2023/08/31 04:59:41;;;;;;;4.63;2.33;;;;;;;;;;4967549;28;20221;-59
2023/08/31 05:02:08;;;;;;;2.33;2.33;;;;;;;;;;4964733;28;20545;-59
2023/08/31 05:04:35;;;;;;;2.55;2.45;;;;;;;;;;4973613;28;20217;-58
2023/08/31 05:07:03;;;;;;;2.42;2.30;;;;;;;;;;4988744;28;20213;-59
2023/08/31 05:09:34;;;;;;;2.58;2.40;;;;;;;;;;4985557;28;20233;-58
2023/08/31 05:12:01;;;;;;;2.50;2.30;;;;;;;;;;4972929;28;20237;-59
2023/08/31 05:14:28;;;;;;;3.57;3.07;;;;;;;;;;4971666;28;20228;-58
2023/08/31 05:16:55;;;;;;;2.78;2.30;;;;;;;;;;4990598;28;20596;-58
2023/08/31 05:19:22;;;;;;;2.42;2.22;;;;;;;;;;4973172;28;20237;-60
2023/08/31 05:21:49;;;;;;;3.17;2.38;;;;;;;;;;4968931;28;20245;-59
2023/08/31 05:24:16;;;;;;;2.60;2.47;;;;;;;;;;4971021;28;20206;-58
2023/08/31 05:26:45;;;;;;;2.50;2.30;;;;;;;;;;4980257;28;20241;-58
2023/08/31 05:29:12;;;;;;;2.22;2.20;;;;;;;;;;4967750;28;20206;-58
2023/08/31 05:31:39;;;;;;;2.13;2.03;;;;;;;;;;4972460;28;20692;-58
2023/08/31 05:34:06;;;;;;;3.67;2.17;;;;;;;;;;4972771;28;20218;-59
2023/08/31 05:36:33;;;;;;;3.33;2.03;;;;;;;;;;4974217;28;20214;-59
2023/08/31 05:39:00;;;;;;;4.13;2.72;;;;;;;;;;4964082;28;20234;-59
2023/08/31 05:41:27;;;;;;;2.22;2.13;;;;;;;;;;4971970;28;20665;-59
2023/08/31 05:43:56;;;;;;;3.22;2.50;;;;;;;;;;4972210;28;20257;-59
2023/08/31 05:46:23;;;;;;;2.38;2.28;;;;;;;;;;4972109;28;20596;-59
2023/08/31 05:48:50;;;;;;;2.83;2.00;;;;;;;;;;4971873;28;20684;-59
2023/08/31 05:51:17;;;;;;;5.18;2.38;;;;;;;;;;4971873;28;20210;-59
2023/08/31 05:53:44;;;;;;;2.45;2.00;;;;;;;;;;4973100;28;20217;-59
2023/08/31 05:56:11;;;;;;;2.15;2.05;;;;;;;;;;4978988;28;20194;-59
2023/08/31 05:58:38;;;;;;;5.20;2.42;;;;;;;;;;4971094;28;20230;-60
2023/08/31 06:01:07;;;;;;;3.58;2.13;;;;;;;;;;4964425;28;20210;-60
2023/08/31 06:03:35;;;;;;;1.85;1.83;;;;;;;;;;4970651;28;20700;-60
2023/08/31 06:06:02;;;;;;;3.13;2.47;;;;;;;;;;4969692;28;20228;-58
2023/08/31 06:08:30;;;;;;;1.98;1.98;;;;;;;;;;4971615;28;20532;-57
2023/08/31 06:10:57;;;;;;;3.55;2.10;;;;;;;;;;4970401;28;20269;-60
2023/08/31 06:13:24;;;;;;;4.97;2.55;;;;;;;;;;4969550;28;20226;-60
2023/08/31 06:15:51;;;;;;;1.50;1.50;;;;;;;;;;4971170;28;20206;-58
2023/08/31 06:18:19;;;;;;;3.80;2.00;;;;;;;;;;4971259;28;20721;-58
2023/08/31 06:20:48;;;;;;;1.77;1.70;;;;;;;;;;4971173;28;20206;-58
2023/08/31 06:23:15;;;;;;;1.65;1.55;;;;;;;;;;4970495;28;20669;-57
2023/08/31 06:25:42;;;;;;;1.75;1.65;;;;;;;;;;4988043;28;20218;-58
2023/08/31 06:28:11;;;;;;;2.72;1.63;;;;;;;;;;4986782;28;20215;-58
2023/08/31 06:30:38;;;;;;;2.03;1.52;;;;;;;;;;4971177;28;20224;-59
2023/08/31 06:33:05;;;;;;;1.73;1.70;;;;;;;;;;4971276;28;20214;-58
2023/08/31 06:35:34;;;;;;;2.33;1.80;;;;;;;;;;4971207;28;20703;-59
2023/08/31 06:38:01;;;;;;;2.15;1.60;;;;;;;;;;4970457;28;20242;-59
2023/08/31 06:40:28;;;;;;;2.22;1.80;;;;;;;;;;4960709;28;20210;-59
2023/08/31 06:42:55;;;;;;;2.25;1.48;;;;;;;;;;4958490;28;20214;-58
2023/08/31 06:45:22;;;;;;;2.28;1.88;;;;;;;;;;4971127;28;20695;-59
2023/08/31 06:47:50;;;;;;;3.33;2.00;;;;;;;;;;4970985;28;20206;-58
2023/08/31 06:50:17;;;;;;;2.03;1.67;;;;;;;;;;4971005;28;20217;-58
2023/08/31 06:52:46;;;;;;;3.50;1.55;;;;;;;;;;4982033;28;20264;-59
2023/08/31 06:55:13;;;;;;;2.95;1.77;;;;;;;;;;4970521;28;20727;-59
2023/08/31 06:57:41;;;;;;;3.38;1.70;;;;;;;;;;4970378;28;20202;-59
2023/08/31 07:00:09;;;;;;;2.08;1.77;;;;;;;;;;4970442;28;20237;-59
2023/08/31 07:02:38;;;;;;;1.40;1.35;;;;;;;;;;4969208;28;20214;-59
2023/08/31 07:05:06;;;;;;;3.15;1.80;;;;;;;;;;4970952;28;20214;-58
2023/08/31 07:07:33;;;;;;;3.42;1.85;;;;;;;;;;4971689;28;20265;-58
2023/08/31 07:10:02;;;;;;;3.35;1.80;;;;;;;;;;4975656;28;20673;-59
2023/08/31 07:12:29;;;;;;;2.28;1.70;;;;;;;;;;4969583;28;20585;-60
2023/08/31 07:14:57;;;;;;;1.60;1.42;;;;;;;;;;4970423;28;20218;-59
2023/08/31 07:17:24;;;;;;;1.95;1.50;;;;;;;;;;4970235;28;20221;-59
2023/08/31 07:19:51;;;;;;;3.00;1.60;;;;;;;;;;4970192;28;20253;-60
2023/08/31 07:22:18;;;;;;;1.67;1.25;;;;;;;;;;4969693;28;20976;-59
2023/08/31 07:24:45;;;;;;;4.15;1.20;;;;;;;;;;4970119;28;20211;-59
2023/08/31 07:27:14;;;;;;;1.60;1.48;;;;;;;;;;4970164;28;20297;-59
2023/08/31 07:29:41;;;;;;;4.47;1.40;;;;;;;;;;4969930;28;20218;-59
2023/08/31 07:32:08;;;;;;;5.50;1.63;;;;;;;;;;4970117;28;20206;-59
2023/08/31 07:34:35;;;;;;;1.17;1.17;;;;;;;;;;4969906;28;20210;-57
2023/08/31 07:37:03;;;;;;;2.78;1.42;;;;;;;;;;4970224;28;20210;-57
2023/08/31 07:39:30;;;;;;;7.28;1.50;;;;;;;;;;4986804;28;20232;-58
2023/08/31 07:41:59;;;;;;;1.58;1.30;;;;;;;;;;4976012;28;20884;-59
2023/08/31 07:44:27;;;;;;;3.30;1.58;;;;;;;;;;4968814;28;20233;-59
2023/08/31 07:46:54;;;;;;;1.20;1.20;;;;;;;;;;4968743;28;20214;-59
2023/08/31 07:49:21;;;;;;;1.45;1.23;;;;;;;;;;4969268;28;20206;-59
2023/08/31 07:51:48;;;;;;;1.40;1.30;;;;;;;;;;4969303;28;20568;-59
2023/08/31 07:54:20;;;;;;;2.05;1.48;;;;;;;;;;4968780;28;20241;-59
2023/08/31 07:56:47;;;;;;;4.68;1.38;;;;;;;;;;4971164;28;20276;-59
2023/08/31 07:59:15;;;;;;;2.78;1.42;;;;;;;;;;4964000;28;20238;-59
2023/08/31 08:01:43;;;;;;;2.38;1.45;;;;;;;;;;4967780;28;20218;-67
2023/08/31 08:04:10;;;;;;;1.23;0.98;;;;;;;;;;4968778;28;20218;-61
2023/08/31 08:06:37;;;;;;;1.58;1.45;;;;;;;;;;4969088;28;20218;-59
2023/08/31 08:09:05;;;;;;;2.22;1.33;;;;;;;;;;4968930;28;20202;-59
2023/08/31 08:11:32;;;;;;;1.27;1.20;;;;;;;;;;4968851;28;20234;-60
2023/08/31 08:13:59;;;;;;;1.75;1.67;;;;;;;;;;4968783;28;20218;-59
2023/08/31 08:16:26;;;;;;;2.10;1.40;;;;;;;;;;4968910;28;20218;-60
2023/08/31 08:18:55;;;;;;;1.20;1.20;;;;;;;;;;4969019;28;20231;-59
2023/08/31 08:21:22;;;;;;;1.25;1.20;;;;;;;;;;4968648;28;20245;-59
2023/08/31 08:23:50;;;;;;;2.65;1.42;;;;;;;;;;4968951;28;20218;-61
2023/08/31 08:26:17;;;;;;;2.60;1.27;;;;;;;;;;4963597;28;20292;-59
2023/08/31 08:28:45;;;;;;;2.67;1.23;;;;;;;;;;4967997;28;20210;-59
2023/08/31 08:31:12;;;;;;;2.97;1.17;;;;;;;;;;4969115;28;20854;-59
2023/08/31 08:33:40;;;;;;;3.20;1.25;;;;;;;;;;4968620;28;20210;-59
2023/08/31 08:36:08;;;;;;;3.25;2.13;;;;;;;;;;4968444;28;20213;-59
2023/08/31 08:38:35;;;;;;;3.75;1.15;;;;;;;;;;4963220;28;20233;-60
2023/08/31 08:41:06;;;;;;;4.25;1.30;;;;;;;;;;4949981;28;20215;-59
2023/08/31 08:43:34;;;;;;;3.00;1.35;;;;;;;;;;4950002;28;20246;-60
2023/08/31 08:46:04;;;;;;;2.10;1.17;;;;;;;;;;4961195;28;20214;-61
2023/08/31 08:48:31;;;;;;;1.80;1.17;;;;;;;;;;4968726;28;20680;-59
2023/08/31 08:50:58;;;;;;;5.15;1.50;;;;;;;;;;4968774;28;21022;-59
2023/08/31 08:53:27;;;;;;;1.27;0.90;;;;;;;;;;4969681;28;20248;-59
2023/08/31 08:55:54;;;;;;;1.88;0.98;;;;;;;;;;4968318;28;20213;-59
2023/08/31 08:58:21;;;;;;;2.10;0.90;;;;;;;;;;4967284;28;20218;-60
2023/08/31 09:00:48;;;;;;;3.15;1.20;;;;;;;;;;4966769;28;20217;-60
2023/08/31 09:03:15;;;;;;;1.40;1.05;;;;;;;;;;4981072;28;20209;-61
2023/08/31 09:05:42;;;;;;;1.90;1.15;;;;;;;;;;4987596;28;20205;-62
2023/08/31 09:08:12;;;;;;;1.00;0.90;;;;;;;;;;4969843;28;20225;-60
2023/08/31 09:10:41;;;;;;;2.67;0.90;;;;;;;;;;4968519;28;20230;-60
2023/08/31 09:13:09;;;;;;;1.75;1.02;;;;;;;;;;4983226;28;20251;-60
2023/08/31 09:15:42;;;;;;;1.90;1.10;;;;;;;;;;4986472;28;20303;-60
2023/08/31 09:18:09;;;;;;;2.13;1.33;;;;;;;;;;4975528;28;20209;-60
2023/08/31 09:20:48;;;;;;;2.83;1.20;;;;;;;;;;4968397;28;20231;-59
2023/08/31 09:23:16;;;;;;;0.90;0.90;;;;;;;;;;4963697;28;20681;-59
2023/08/31 09:25:44;;;;;;;1.02;1.00;;;;;;;;;;4967731;28;20736;-59
2023/08/31 09:28:13;;;;;;;2.55;1.10;;;;;;;;;;4967239;28;20210;-59
2023/08/31 09:30:41;;;;;;;2.75;1.25;;;;;;;;;;4968045;28;20202;-59
2023/08/31 09:33:08;;;;;;;4.28;1.15;;;;;;;;;;4967712;28;20739;-59
2023/08/31 09:35:36;;;;;;;6.28;1.08;;;;;;;;;;4968905;28;20242;-59
2023/08/31 09:38:03;;;;;;;1.67;1.00;;;;;;;;;;4968524;28;20210;-59
2023/08/31 09:40:30;;;;;;;1.95;1.05;;;;;;;;;;4966383;28;20222;-59
2023/08/31 09:42:58;;;;;;;2.35;1.33;;;;;;;;;;4965860;28;20218;-59
2023/08/31 09:45:31;;;;;;;1.13;0.90;;;;;;;;;;4968508;28;20203;-59
2023/08/31 09:47:58;;;;;;;1.05;0.90;;;;;;;;;;4974304;28;20222;-62
2023/08/31 09:50:25;;;;;;;3.47;1.00;;;;;;;;;;4968759;28;20209;-59
2023/08/31 09:52:55;;;;;;;1.10;1.00;;;;;;;;;;4966200;28;20207;-60
2023/08/31 09:55:23;;;;;;;1.58;1.10;;;;;;;;;;4970020;28;20225;-59
2023/08/31 09:57:50;;;;;;;1.08;0.93;;;;;;;;;;4971400;28;20213;-59
2023/08/31 10:00:19;;;;;;;1.25;1.10;;;;;;;;;;4971056;28;20222;-59
2023/08/31 10:02:47;;;;;;;1.00;1.00;;;;;;;;;;4971274;28;20310;-59
2023/08/31 10:05:15;;;;;;;4.05;1.17;;;;;;;;;;4971445;28;20210;-59
2023/08/31 10:07:43;;;;;;;0.80;0.80;;;;;;;;;;4971148;28;20213;-59
2023/08/31 10:10:10;;;;;;;2.15;1.17;;;;;;;;;;4971136;28;20301;-59
2023/08/31 10:12:38;;;;;;;2.45;1.20;;;;;;;;;;4971030;28;20240;-59
2023/08/31 10:15:06;;;;;;;2.55;1.00;;;;;;;;;;4971296;28;20763;-59
2023/08/31 10:17:35;;;;;;;1.17;1.08;;;;;;;;;;4969343;28;20209;-60
2023/08/31 10:20:02;;;;;;;0.90;0.90;;;;;;;;;;4970973;28;20606;-60
2023/08/31 10:22:30;;;;;;;2.47;1.00;;;;;;;;;;4976327;28;20269;-60
2023/08/31 10:25:00;;;;;;;1.00;1.00;;;;;;;;;;4971116;28;20206;-60
2023/08/31 10:27:28;;;;;;;1.02;0.60;;;;;;;;;;4970864;28;20211;-60
2023/08/31 10:29:55;;;;;;;1.10;1.02;;;;;;;;;;4970892;28;20899;-61
2023/08/31 10:32:22;;;;;;;1.23;0.90;;;;;;;;;;4971049;28;20580;-60
2023/08/31 10:35:07;;;;;;;0.80;0.80;;;;;;;;;;4967874;28;20213;-61
2023/08/31 10:37:34;;;;;;;1.10;0.98;;;;;;;;;;4969050;28;20229;-60
2023/08/31 10:40:11;;;;;;;1.23;0.60;;;;;;;;;;4968029;28;20231;-67
2023/08/31 10:42:45;;;;;;;0.90;0.90;;;;;;;;;;4970279;28;20301;-67
2023/08/31 10:45:12;;;;;;;0.85;0.82;;;;;;;;;;4970626;28;20218;-67
2023/08/31 10:47:39;;;;;;;1.00;0.90;;;;;;;;;;4970508;28;20578;-67
2023/08/31 10:50:21;;;;;;;8.50;1.42;;;;;;;;;;4969079;28;20338;-66
2023/08/31 10:52:49;;;;;;;0.73;0.73;;;;;;;;;;4952013;28;20696;-67
2023/08/31 10:55:16;;;;;;;1.83;0.80;;;;;;;;;;4974362;28;20214;-69
2023/08/31 10:57:43;;;;;;;0.88;0.88;;;;;;;;;;4959580;28;20211;-68
2023/08/31 11:00:11;;;;;;;1.73;0.70;;;;;;;;;;4967873;28;20226;-67
2023/08/31 11:02:39;;;;;;;1.75;0.88;;;;;;;;;;4964890;28;20293;-68
2023/08/31 11:05:10;;;;;;;0.95;0.70;;;;;;;;;;4949869;28;20217;-66
2023/08/31 11:07:40;;;;;;;2.42;0.95;;;;;;;;;;4953711;28;20234;-67
2023/08/31 11:10:10;;;;;;;1.42;0.80;;;;;;;;;;4951888;28;20206;-68
2023/08/31 11:12:37;;;;;;;0.75;0.75;;;;;;;;;;4964533;28;20233;-67
2023/08/31 11:15:06;;;;;;;2.47;0.98;;;;;;;;;;4964467;28;20211;-66
2023/08/31 11:17:34;;;;;;;1.35;0.80;;;;;;;;;;4963409;28;20257;-67
2023/08/31 11:20:05;;;;;;;0.75;0.75;;;;;;;;;;4968188;28;20238;-67
2023/08/31 11:22:33;;;;;;;5.57;1.08;;;;;;;;;;4968687;28;20268;-67
2023/08/31 11:25:01;;;;;;;0.95;0.90;;;;;;;;;;4962386;28;20697;-67
2023/08/31 11:27:28;;;;;;;1.13;0.88;;;;;;;;;;4949853;28;20203;-68
2023/08/31 11:29:55;;;;;;;1.35;0.90;;;;;;;;;;4950232;28;20692;-68
2023/08/31 11:32:25;;;;;;;0.93;0.70;;;;;;;;;;4968495;28;20665;-69
2023/08/31 11:34:52;;;;;;;1.13;1.00;;;;;;;;;;4951312;28;20238;-70
2023/08/31 11:37:21;;;;;;;1.33;0.60;;;;;;;;;;4949997;28;20689;-70
2023/08/31 11:39:50;;;;;;;0.73;0.73;;;;;;;;;;4949378;28;20646;-70
2023/08/31 11:42:20;;;;;;;0.73;0.70;;;;;;;;;;4966293;28;20215;-69
2023/08/31 11:44:47;;;;;;;0.93;0.90;;;;;;;;;;4968969;28;20579;-70
2023/08/31 11:47:14;;;;;;;1.00;1.00;;;;;;;;;;4960146;28;20214;-71
2023/08/31 11:49:42;;;;;;;2.53;0.90;;;;;;;;;;4952224;28;20195;-69
2023/08/31 11:52:11;;;;;;;1.30;1.20;;;;;;;;;;4968473;28;20209;-68
2023/08/31 11:54:39;;;;;;;1.40;0.80;;;;;;;;;;4966869;28;20207;-69
2023/08/31 11:57:09;;;;;;;0.80;0.80;;;;;;;;;;4958178;28;20245;-63
2023/08/31 11:59:38;;;;;;;1.10;0.60;;;;;;;;;;4960844;28;20712;-69
2023/08/31 12:02:07;;;;;;;0.82;0.82;;;;;;;;;;4965083;28;20206;-66
2023/08/31 12:04:34;;;;;;;0.70;0.70;;;;;;;;;;4967785;28;20586;-69
2023/08/31 12:07:04;;;;;;;1.95;1.00;;;;;;;;;;4967260;28;20206;-70
2023/08/31 12:09:32;;;;;;;0.80;0.80;;;;;;;;;;4965732;28;20211;-69
2023/08/31 12:12:00;;;;;;;1.63;1.10;;;;;;;;;;4967258;28;20281;-68
2023/08/31 12:14:27;;;;;;;0.60;0.57;;;;;;;;;;4964860;28;20215;-68
2023/08/31 12:17:02;;;;;;;0.98;0.80;;;;;;;;;;4964684;28;20223;-68
2023/08/31 12:19:30;;;;;;;0.82;0.82;;;;;;;;;;4966838;28;20201;-66
2023/08/31 12:21:57;;;;;;;0.88;0.73;;;;;;;;;;4969208;28;20389;-69
2023/08/31 12:24:24;;;;;;;1.00;0.93;;;;;;;;;;4984334;28;20217;-68
2023/08/31 12:26:53;;;;;;;1.45;1.05;;;;;;;;;;4966962;28;20214;-68
2023/08/31 12:29:20;;;;;;;1.35;0.90;;;;;;;;;;4967665;28;20236;-69
2023/08/31 12:31:47;;;;;;;1.02;1.02;;;;;;;;;;4967529;28;20752;-66
2023/08/31 12:34:16;;;;;;;1.88;0.90;;;;;;;;;;4967015;28;20222;-68
2023/08/31 12:36:43;;;;;;;0.80;0.80;;;;;;;;;;4966169;28;20214;-68
2023/08/31 12:39:10;;;;;;;1.05;0.80;;;;;;;;;;4965025;28;20206;-68
2023/08/31 12:41:38;;;;;;;2.05;1.08;;;;;;;;;;4967040;28;20276;-68
2023/08/31 12:44:05;;;;;;;1.00;0.98;;;;;;;;;;4966891;28;20210;-69
2023/08/31 12:46:32;;;;;;;0.93;0.88;;;;;;;;;;4962338;28;20206;-69
2023/08/31 12:49:00;;;;;;;1.10;1.10;;;;;;;;;;4961217;28;20706;-69
2023/08/31 12:51:29;;;;;;;1.08;0.75;;;;;;;;;;4960476;28;20214;-68
2023/08/31 12:53:56;;;;;;;2.45;0.82;;;;;;;;;;4967130;28;20214;-68
2023/08/31 12:56:24;;;;;;;1.38;0.80;;;;;;;;;;4954945;28;20297;-69
2023/08/31 12:58:51;;;;;;;1.58;0.80;;;;;;;;;;4969447;28;20226;-68
2023/08/31 13:01:18;;;;;;;1.20;1.00;;;;;;;;;;4962836;28;20321;-68
2023/08/31 13:03:46;;;;;;;3.38;1.00;;;;;;;;;;4952060;28;20214;-69
2023/08/31 13:06:13;;;;;;;0.93;0.73;;;;;;;;;;4958066;28;20213;-68
2023/08/31 13:08:43;;;;;;;0.90;0.90;;;;;;;;;;4947252;28;20223;-69
2023/08/31 13:11:10;;;;;;;1.55;1.20;;;;;;;;;;4957222;28;20681;-69
2023/08/31 13:13:37;;;;;;;2.15;1.00;;;;;;;;;;4967324;28;20225;-68
2023/08/31 13:16:04;;;;;;;1.27;1.00;;;;;;;;;;4967089;28;20210;-68
2023/08/31 13:18:31;;;;;;;0.82;0.82;;;;;;;;;;4967378;28;20214;-63
2023/08/31 13:20:58;;;;;;;0.88;0.88;;;;;;;;;;4967259;28;20603;-69
2023/08/31 13:23:25;;;;;;;1.33;0.90;;;;;;;;;;4970787;28;20217;-69
2023/08/31 13:25:54;;;;;;;1.05;0.95;;;;;;;;;;4963425;28;20207;-69
2023/08/31 13:28:21;;;;;;;1.88;0.93;;;;;;;;;;4974735;28;20213;-69
2023/08/31 13:30:48;;;;;;;1.23;0.82;;;;;;;;;;4979210;28;20211;-69
2023/08/31 13:33:15;;;;;;;1.13;0.90;;;;;;;;;;4963547;28;20203;-70
2023/08/31 13:35:43;;;;;;;0.95;0.90;;;;;;;;;;4958632;28;20235;-69
2023/08/31 13:38:10;;;;;;;1.13;1.13;;;;;;;;;;4966364;28;20210;-69
2023/08/31 13:40:37;;;;;;;1.40;1.30;;;;;;;;;;4970344;28;20720;-69
2023/08/31 13:43:05;;;;;;;1.65;0.90;;;;;;;;;;4963353;28;20552;-67
2023/08/31 13:45:32;;;;;;;2.30;1.17;;;;;;;;;;4967769;28;20318;-69
2023/08/31 13:48:00;;;;;;;1.70;1.48;;;;;;;;;;4967152;28;20221;-68
2023/08/31 13:50:27;;;;;;;3.85;1.05;;;;;;;;;;4967754;28;20251;-68
2023/08/31 13:52:54;;;;;;;4.30;1.10;;;;;;;;;;4969966;28;20229;-69
2023/08/31 13:55:22;;;;;;;2.92;0.90;;;;;;;;;;4969657;28;20218;-69
2023/08/31 13:57:49;;;;;;;1.20;1.10;;;;;;;;;;4969351;28;20211;-68
2023/08/31 14:00:18;;;;;;;1.15;1.13;;;;;;;;;;4964316;28;20233;-66
2023/08/31 14:02:45;;;;;;;1.08;1.00;;;;;;;;;;4971847;28;20225;-67
2023/08/31 14:05:14;;;;;;;2.65;1.25;;;;;;;;;;4968977;28;20269;-66
2023/08/31 14:07:41;;;;;;;1.73;1.40;;;;;;;;;;4969281;28;20221;-59
2023/08/31 14:10:09;;;;;;;2.13;1.42;;;;;;;;;;4968444;28;20229;-61
2023/08/31 14:12:36;;;;;;;5.45;1.27;;;;;;;;;;4970481;28;20234;-61
2023/08/31 14:15:03;;;;;;;1.52;1.25;;;;;;;;;;4970724;28;20198;-60
2023/08/31 14:17:32;;;;;;;2.25;1.20;;;;;;;;;;4970420;28;20206;-61
2023/08/31 14:20:00;;;;;;;1.25;1.00;;;;;;;;;;4970579;28;20214;-61
2023/08/31 14:22:28;;;;;;;1.05;0.80;;;;;;;;;;4970052;28;20297;-60
2023/08/31 14:24:55;;;;;;;2.30;1.20;;;;;;;;;;4970342;28;20687;-60
2023/08/31 14:27:22;;;;;;;1.88;0.95;;;;;;;;;;4969694;28;20233;-61
2023/08/31 14:29:49;;;;;;;2.47;1.13;;;;;;;;;;4973667;28;20206;-60
2023/08/31 14:32:17;;;;;;;2.35;1.08;;;;;;;;;;4967485;28;20206;-61
2023/08/31 14:34:45;;;;;;;3.65;1.23;;;;;;;;;;4964092;28;20215;-60
2023/08/31 14:37:12;;;;;;;1.85;1.23;;;;;;;;;;4956573;28;20424;-61
2023/08/31 14:39:39;;;;;;;4.70;1.40;;;;;;;;;;4969617;28;20214;-61
2023/08/31 14:42:06;;;;;;;5.15;2.10;;;;;;;;;;4970154;28;20241;-61
2023/08/31 14:44:33;;;;;;;4.63;1.02;;;;;;;;;;4970237;28;20214;-61
2023/08/31 14:47:00;;;;;;;2.78;1.23;;;;;;;;;;4970374;28;20308;-61